sensor_id;sensor_type;location;lat;lon;timestamp;P1;durP1;ratioP1;P2;durP2;ratioP2
83018;SDS011;72834;40.104;18.336;2023-12-20T00:00:12;67.03;;;34.92;;
83018;SDS011;72834;40.104;18.336;2023-12-20T00:02:38;65.68;;;36.50;;
83018;SDS011;72834;40.104;18.336;2023-12-20T00:05:05;66.25;;;38.03;;
83018;SDS011;72834;40.104;18.336;2023-12-20T00:07:31;54.83;;;33.17;;
83018;SDS011;72834;40.104;18.336;2023-12-20T00:09:58;51.08;;;30.00;;
83018;SDS011;72834;40.104;18.336;2023-12-20T00:12:24;58.00;;;30.05;;
83018;SDS011;72834;40.104;18.336;2023-12-20T00:14:50;59.58;;;30.67;;
83018;SDS011;72834;40.104;18.336;2023-12-20T00:17:16;53.08;;;33.17;;
83018;SDS011;72834;40.104;18.336;2023-12-20T00:19:43;53.75;;;30.88;;
83018;SDS011;72834;40.104;18.336;2023-12-20T00:22:09;49.08;;;28.92;;
83018;SDS011;72834;40.104;18.336;2023-12-20T00:24:35;52.95;;;28.42;;
83018;SDS011;72834;40.104;18.336;2023-12-20T00:27:01;42.80;;;23.88;;
83018;SDS011;72834;40.104;18.336;2023-12-20T00:29:28;42.85;;;25.73;;
83018;SDS011;72834;40.104;18.336;2023-12-20T00:31:54;49.15;;;27.75;;
83018;SDS011;72834;40.104;18.336;2023-12-20T00:34:20;43.88;;;28.10;;
83018;SDS011;72834;40.104;18.336;2023-12-20T00:36:46;45.28;;;26.85;;
83018;SDS011;72834;40.104;18.336;2023-12-20T00:39:13;46.50;;;28.13;;
83018;SDS011;72834;40.104;18.336;2023-12-20T00:41:39;53.47;;;29.00;;
83018;SDS011;72834;40.104;18.336;2023-12-20T00:44:05;47.58;;;27.52;;
83018;SDS011;72834;40.104;18.336;2023-12-20T00:46:31;43.65;;;24.88;;
83018;SDS011;72834;40.104;18.336;2023-12-20T00:48:57;42.10;;;25.35;;
83018;SDS011;72834;40.104;18.336;2023-12-20T00:51:24;40.35;;;25.30;;
83018;SDS011;72834;40.104;18.336;2023-12-20T00:53:50;45.67;;;26.23;;
83018;SDS011;72834;40.104;18.336;2023-12-20T00:56:20;50.55;;;28.05;;
83018;SDS011;72834;40.104;18.336;2023-12-20T00:58:47;53.40;;;28.83;;
83018;SDS011;72834;40.104;18.336;2023-12-20T01:01:13;49.67;;;25.90;;
83018;SDS011;72834;40.104;18.336;2023-12-20T01:03:39;49.40;;;25.48;;
83018;SDS011;72834;40.104;18.336;2023-12-20T01:06:05;43.38;;;25.63;;
83018;SDS011;72834;40.104;18.336;2023-12-20T01:08:31;53.97;;;26.90;;
83018;SDS011;72834;40.104;18.336;2023-12-20T01:11:00;48.42;;;25.90;;
83018;SDS011;72834;40.104;18.336;2023-12-20T01:13:26;50.92;;;29.58;;
83018;SDS011;72834;40.104;18.336;2023-12-20T01:15:52;44.13;;;25.00;;
83018;SDS011;72834;40.104;18.336;2023-12-20T01:18:19;37.80;;;18.65;;
83018;SDS011;72834;40.104;18.336;2023-12-20T01:20:45;31.63;;;18.20;;
83018;SDS011;72834;40.104;18.336;2023-12-20T01:23:11;32.15;;;17.40;;
83018;SDS011;72834;40.104;18.336;2023-12-20T01:25:37;32.67;;;18.02;;
83018;SDS011;72834;40.104;18.336;2023-12-20T01:28:04;29.45;;;17.15;;
83018;SDS011;72834;40.104;18.336;2023-12-20T01:30:31;27.50;;;17.08;;
83018;SDS011;72834;40.104;18.336;2023-12-20T01:32:58;32.03;;;17.35;;
83018;SDS011;72834;40.104;18.336;2023-12-20T01:35:25;32.30;;;17.92;;
83018;SDS011;72834;40.104;18.336;2023-12-20T01:37:51;31.85;;;18.98;;
83018;SDS011;72834;40.104;18.336;2023-12-20T01:40:22;32.67;;;17.33;;
83018;SDS011;72834;40.104;18.336;2023-12-20T01:42:57;37.65;;;21.45;;
83018;SDS011;72834;40.104;18.336;2023-12-20T01:45:30;42.67;;;22.27;;
83018;SDS011;72834;40.104;18.336;2023-12-20T01:47:57;37.55;;;21.83;;
83018;SDS011;72834;40.104;18.336;2023-12-20T01:50:24;38.10;;;21.80;;
83018;SDS011;72834;40.104;18.336;2023-12-20T01:52:52;36.28;;;19.58;;
83018;SDS011;72834;40.104;18.336;2023-12-20T01:55:23;40.40;;;21.80;;
83018;SDS011;72834;40.104;18.336;2023-12-20T01:57:50;30.98;;;18.63;;
83018;SDS011;72834;40.104;18.336;2023-12-20T02:03:06;37.47;;;19.27;;
83018;SDS011;72834;40.104;18.336;2023-12-20T02:05:34;35.53;;;19.23;;
83018;SDS011;72834;40.104;18.336;2023-12-20T02:08:02;33.50;;;19.73;;
83018;SDS011;72834;40.104;18.336;2023-12-20T02:10:29;33.13;;;17.85;;
83018;SDS011;72834;40.104;18.336;2023-12-20T02:12:56;31.85;;;17.55;;
83018;SDS011;72834;40.104;18.336;2023-12-20T02:15:22;30.73;;;18.13;;
83018;SDS011;72834;40.104;18.336;2023-12-20T02:17:48;33.90;;;19.17;;
83018;SDS011;72834;40.104;18.336;2023-12-20T02:20:15;38.35;;;21.13;;
83018;SDS011;72834;40.104;18.336;2023-12-20T02:22:41;34.70;;;22.05;;
83018;SDS011;72834;40.104;18.336;2023-12-20T02:25:08;37.28;;;20.17;;
83018;SDS011;72834;40.104;18.336;2023-12-20T02:27:34;34.58;;;20.75;;
83018;SDS011;72834;40.104;18.336;2023-12-20T02:30:00;35.92;;;21.13;;
83018;SDS011;72834;40.104;18.336;2023-12-20T02:32:27;40.22;;;22.60;;
83018;SDS011;72834;40.104;18.336;2023-12-20T02:34:54;38.80;;;22.05;;
83018;SDS011;72834;40.104;18.336;2023-12-20T02:37:21;41.75;;;23.63;;
83018;SDS011;72834;40.104;18.336;2023-12-20T02:39:47;41.22;;;22.52;;
83018;SDS011;72834;40.104;18.336;2023-12-20T02:42:13;41.58;;;21.92;;
83018;SDS011;72834;40.104;18.336;2023-12-20T02:44:40;36.00;;;20.65;;
83018;SDS011;72834;40.104;18.336;2023-12-20T02:47:06;43.92;;;22.52;;
83018;SDS011;72834;40.104;18.336;2023-12-20T02:49:32;40.67;;;22.35;;
83018;SDS011;72834;40.104;18.336;2023-12-20T02:51:58;39.47;;;21.65;;
83018;SDS011;72834;40.104;18.336;2023-12-20T02:54:24;39.95;;;22.10;;
83018;SDS011;72834;40.104;18.336;2023-12-20T02:56:51;38.22;;;19.15;;
83018;SDS011;72834;40.104;18.336;2023-12-20T02:59:17;38.78;;;20.63;;
83018;SDS011;72834;40.104;18.336;2023-12-20T03:01:44;35.83;;;19.85;;
83018;SDS011;72834;40.104;18.336;2023-12-20T03:04:14;33.22;;;19.40;;
83018;SDS011;72834;40.104;18.336;2023-12-20T03:06:40;36.10;;;18.48;;
83018;SDS011;72834;40.104;18.336;2023-12-20T03:09:06;44.72;;;22.00;;
83018;SDS011;72834;40.104;18.336;2023-12-20T03:11:33;45.28;;;25.38;;
83018;SDS011;72834;40.104;18.336;2023-12-20T03:13:59;45.35;;;22.83;;
83018;SDS011;72834;40.104;18.336;2023-12-20T03:16:26;46.35;;;24.35;;
83018;SDS011;72834;40.104;18.336;2023-12-20T03:18:52;47.83;;;26.35;;
83018;SDS011;72834;40.104;18.336;2023-12-20T03:21:19;49.40;;;22.70;;
83018;SDS011;72834;40.104;18.336;2023-12-20T03:23:45;41.95;;;20.60;;
83018;SDS011;72834;40.104;18.336;2023-12-20T03:26:11;47.42;;;20.52;;
83018;SDS011;72834;40.104;18.336;2023-12-20T03:28:37;39.05;;;20.52;;
83018;SDS011;72834;40.104;18.336;2023-12-20T03:31:04;37.72;;;17.90;;
83018;SDS011;72834;40.104;18.336;2023-12-20T03:33:30;36.22;;;18.75;;
83018;SDS011;72834;40.104;18.336;2023-12-20T03:35:56;33.92;;;17.25;;
83018;SDS011;72834;40.104;18.336;2023-12-20T03:38:22;35.70;;;18.92;;
83018;SDS011;72834;40.104;18.336;2023-12-20T03:40:51;34.90;;;17.20;;
83018;SDS011;72834;40.104;18.336;2023-12-20T03:43:18;29.98;;;15.73;;
83018;SDS011;72834;40.104;18.336;2023-12-20T03:45:44;29.20;;;15.32;;
83018;SDS011;72834;40.104;18.336;2023-12-20T03:48:11;33.88;;;17.35;;
83018;SDS011;72834;40.104;18.336;2023-12-20T03:50:37;31.95;;;16.98;;
83018;SDS011;72834;40.104;18.336;2023-12-20T03:53:03;41.33;;;17.80;;
83018;SDS011;72834;40.104;18.336;2023-12-20T03:55:30;38.28;;;17.13;;
83018;SDS011;72834;40.104;18.336;2023-12-20T03:57:56;28.98;;;16.55;;
83018;SDS011;72834;40.104;18.336;2023-12-20T04:00:22;32.20;;;17.45;;
83018;SDS011;72834;40.104;18.336;2023-12-20T04:02:48;34.97;;;16.58;;
83018;SDS011;72834;40.104;18.336;2023-12-20T04:05:14;41.00;;;16.77;;
83018;SDS011;72834;40.104;18.336;2023-12-20T04:07:41;35.45;;;16.33;;
83018;SDS011;72834;40.104;18.336;2023-12-20T04:10:07;32.42;;;16.92;;
83018;SDS011;72834;40.104;18.336;2023-12-20T04:12:34;33.28;;;15.65;;
83018;SDS011;72834;40.104;18.336;2023-12-20T04:15:00;37.95;;;16.55;;
83018;SDS011;72834;40.104;18.336;2023-12-20T04:17:27;36.75;;;17.67;;
83018;SDS011;72834;40.104;18.336;2023-12-20T04:19:53;36.22;;;17.98;;
83018;SDS011;72834;40.104;18.336;2023-12-20T04:22:19;41.53;;;18.15;;
83018;SDS011;72834;40.104;18.336;2023-12-20T04:24:46;43.42;;;21.25;;
83018;SDS011;72834;40.104;18.336;2023-12-20T04:27:12;39.50;;;20.08;;
83018;SDS011;72834;40.104;18.336;2023-12-20T04:29:38;44.20;;;20.83;;
83018;SDS011;72834;40.104;18.336;2023-12-20T04:32:05;42.60;;;21.02;;
83018;SDS011;72834;40.104;18.336;2023-12-20T04:34:31;42.42;;;22.00;;
83018;SDS011;72834;40.104;18.336;2023-12-20T04:36:57;40.00;;;21.00;;
83018;SDS011;72834;40.104;18.336;2023-12-20T04:39:24;38.45;;;20.42;;
83018;SDS011;72834;40.104;18.336;2023-12-20T04:41:50;46.92;;;22.40;;
83018;SDS011;72834;40.104;18.336;2023-12-20T04:44:16;52.45;;;23.85;;
83018;SDS011;72834;40.104;18.336;2023-12-20T04:46:42;63.33;;;24.58;;
83018;SDS011;72834;40.104;18.336;2023-12-20T04:49:09;41.92;;;23.23;;
83018;SDS011;72834;40.104;18.336;2023-12-20T04:51:35;53.03;;;22.90;;
83018;SDS011;72834;40.104;18.336;2023-12-20T04:54:03;46.97;;;21.05;;
83018;SDS011;72834;40.104;18.336;2023-12-20T04:56:29;44.90;;;20.05;;
83018;SDS011;72834;40.104;18.336;2023-12-20T04:58:56;39.25;;;20.67;;
83018;SDS011;72834;40.104;18.336;2023-12-20T05:01:22;44.78;;;21.02;;
83018;SDS011;72834;40.104;18.336;2023-12-20T05:03:48;49.08;;;21.30;;
83018;SDS011;72834;40.104;18.336;2023-12-20T05:06:14;48.53;;;23.15;;
83018;SDS011;72834;40.104;18.336;2023-12-20T05:08:41;46.97;;;22.63;;
83018;SDS011;72834;40.104;18.336;2023-12-20T05:11:07;50.05;;;23.70;;
83018;SDS011;72834;40.104;18.336;2023-12-20T05:13:33;47.90;;;21.55;;
83018;SDS011;72834;40.104;18.336;2023-12-20T05:15:59;161.23;;;74.80;;
83018;SDS011;72834;40.104;18.336;2023-12-20T05:18:25;79.60;;;37.85;;
83018;SDS011;72834;40.104;18.336;2023-12-20T05:20:52;54.38;;;24.58;;
83018;SDS011;72834;40.104;18.336;2023-12-20T05:23:18;49.72;;;23.33;;
83018;SDS011;72834;40.104;18.336;2023-12-20T05:25:45;56.30;;;24.38;;
83018;SDS011;72834;40.104;18.336;2023-12-20T05:28:12;54.50;;;22.17;;
83018;SDS011;72834;40.104;18.336;2023-12-20T05:30:38;57.33;;;22.30;;
83018;SDS011;72834;40.104;18.336;2023-12-20T05:33:04;48.00;;;22.65;;
83018;SDS011;72834;40.104;18.336;2023-12-20T05:35:31;53.05;;;23.15;;
83018;SDS011;72834;40.104;18.336;2023-12-20T05:37:57;44.05;;;20.67;;
83018;SDS011;72834;40.104;18.336;2023-12-20T05:40:23;50.65;;;21.42;;
83018;SDS011;72834;40.104;18.336;2023-12-20T05:42:49;54.28;;;21.83;;
83018;SDS011;72834;40.104;18.336;2023-12-20T05:45:16;68.53;;;33.53;;
83018;SDS011;72834;40.104;18.336;2023-12-20T05:47:42;70.03;;;36.70;;
83018;SDS011;72834;40.104;18.336;2023-12-20T05:50:08;69.50;;;36.45;;
83018;SDS011;72834;40.104;18.336;2023-12-20T05:52:35;48.90;;;22.60;;
83018;SDS011;72834;40.104;18.336;2023-12-20T05:55:01;59.83;;;30.98;;
83018;SDS011;72834;40.104;18.336;2023-12-20T05:57:28;26.33;;;11.82;;
83018;SDS011;72834;40.104;18.336;2023-12-20T05:59:54;21.25;;;11.77;;
83018;SDS011;72834;40.104;18.336;2023-12-20T06:02:20;49.05;;;24.10;;
83018;SDS011;72834;40.104;18.336;2023-12-20T06:04:46;30.27;;;15.13;;
83018;SDS011;72834;40.104;18.336;2023-12-20T06:07:13;34.35;;;14.10;;
83018;SDS011;72834;40.104;18.336;2023-12-20T06:09:41;26.85;;;12.30;;
83018;SDS011;72834;40.104;18.336;2023-12-20T06:12:07;28.83;;;13.77;;
83018;SDS011;72834;40.104;18.336;2023-12-20T06:14:34;30.75;;;14.52;;
83018;SDS011;72834;40.104;18.336;2023-12-20T06:17:00;30.63;;;15.60;;
83018;SDS011;72834;40.104;18.336;2023-12-20T06:19:27;44.47;;;17.98;;
83018;SDS011;72834;40.104;18.336;2023-12-20T06:21:53;36.78;;;14.18;;
83018;SDS011;72834;40.104;18.336;2023-12-20T06:24:19;26.50;;;13.27;;
83018;SDS011;72834;40.104;18.336;2023-12-20T06:26:47;29.38;;;14.90;;
83018;SDS011;72834;40.104;18.336;2023-12-20T06:29:13;35.78;;;16.80;;
83018;SDS011;72834;40.104;18.336;2023-12-20T06:31:39;23.50;;;11.90;;
83018;SDS011;72834;40.104;18.336;2023-12-20T06:34:06;30.00;;;11.40;;
83018;SDS011;72834;40.104;18.336;2023-12-20T06:36:32;25.48;;;12.20;;
83018;SDS011;72834;40.104;18.336;2023-12-20T06:38:58;25.00;;;11.88;;
83018;SDS011;72834;40.104;18.336;2023-12-20T06:41:24;26.33;;;12.70;;
83018;SDS011;72834;40.104;18.336;2023-12-20T06:43:51;22.25;;;11.65;;
83018;SDS011;72834;40.104;18.336;2023-12-20T06:46:18;24.27;;;11.63;;
83018;SDS011;72834;40.104;18.336;2023-12-20T06:48:44;28.13;;;12.65;;
83018;SDS011;72834;40.104;18.336;2023-12-20T06:51:15;22.42;;;11.07;;
83018;SDS011;72834;40.104;18.336;2023-12-20T06:53:42;27.88;;;11.77;;
83018;SDS011;72834;40.104;18.336;2023-12-20T06:56:10;28.17;;;12.63;;
83018;SDS011;72834;40.104;18.336;2023-12-20T06:58:39;29.50;;;13.25;;
83018;SDS011;72834;40.104;18.336;2023-12-20T07:01:07;28.50;;;13.82;;
83018;SDS011;72834;40.104;18.336;2023-12-20T07:03:40;26.42;;;12.38;;
83018;SDS011;72834;40.104;18.336;2023-12-20T07:06:07;30.65;;;13.93;;
83018;SDS011;72834;40.104;18.336;2023-12-20T07:08:34;26.30;;;13.32;;
83018;SDS011;72834;40.104;18.336;2023-12-20T07:11:00;30.10;;;12.57;;
83018;SDS011;72834;40.104;18.336;2023-12-20T07:13:26;29.67;;;14.15;;
83018;SDS011;72834;40.104;18.336;2023-12-20T07:15:52;29.48;;;13.05;;
83018;SDS011;72834;40.104;18.336;2023-12-20T07:18:18;33.05;;;13.30;;
83018;SDS011;72834;40.104;18.336;2023-12-20T07:20:45;28.88;;;12.18;;
83018;SDS011;72834;40.104;18.336;2023-12-20T07:23:11;34.88;;;13.25;;
83018;SDS011;72834;40.104;18.336;2023-12-20T07:25:37;25.08;;;12.02;;
83018;SDS011;72834;40.104;18.336;2023-12-20T07:28:03;25.77;;;12.18;;
83018;SDS011;72834;40.104;18.336;2023-12-20T07:30:30;25.23;;;11.88;;
83018;SDS011;72834;40.104;18.336;2023-12-20T07:32:56;30.35;;;12.13;;
83018;SDS011;72834;40.104;18.336;2023-12-20T07:35:23;39.15;;;18.92;;
83018;SDS011;72834;40.104;18.336;2023-12-20T07:37:50;40.38;;;17.08;;
83018;SDS011;72834;40.104;18.336;2023-12-20T07:40:17;51.13;;;21.95;;
83018;SDS011;72834;40.104;18.336;2023-12-20T07:42:43;37.47;;;14.88;;
83018;SDS011;72834;40.104;18.336;2023-12-20T07:45:10;32.63;;;11.80;;
83018;SDS011;72834;40.104;18.336;2023-12-20T07:47:37;32.88;;;12.40;;
83018;SDS011;72834;40.104;18.336;2023-12-20T07:50:03;27.60;;;13.27;;
83018;SDS011;72834;40.104;18.336;2023-12-20T07:52:30;29.13;;;13.55;;
83018;SDS011;72834;40.104;18.336;2023-12-20T07:54:56;32.03;;;14.15;;
83018;SDS011;72834;40.104;18.336;2023-12-20T07:57:23;44.40;;;21.52;;
83018;SDS011;72834;40.104;18.336;2023-12-20T07:59:49;32.17;;;15.38;;
83018;SDS011;72834;40.104;18.336;2023-12-20T08:02:16;57.75;;;23.08;;
83018;SDS011;72834;40.104;18.336;2023-12-20T08:04:42;32.97;;;15.98;;
83018;SDS011;72834;40.104;18.336;2023-12-20T08:07:08;103.55;;;56.58;;
83018;SDS011;72834;40.104;18.336;2023-12-20T08:09:34;44.58;;;24.05;;
83018;SDS011;72834;40.104;18.336;2023-12-20T08:12:02;40.85;;;19.50;;
83018;SDS011;72834;40.104;18.336;2023-12-20T08:14:28;45.38;;;20.33;;
83018;SDS011;72834;40.104;18.336;2023-12-20T08:16:55;35.47;;;15.45;;
83018;SDS011;72834;40.104;18.336;2023-12-20T08:19:21;27.75;;;13.07;;
83018;SDS011;72834;40.104;18.336;2023-12-20T08:21:47;46.40;;;20.42;;
83018;SDS011;72834;40.104;18.336;2023-12-20T08:24:13;45.65;;;23.15;;
83018;SDS011;72834;40.104;18.336;2023-12-20T08:26:40;42.95;;;17.65;;
83018;SDS011;72834;40.104;18.336;2023-12-20T08:29:06;57.35;;;25.90;;
83018;SDS011;72834;40.104;18.336;2023-12-20T08:31:32;58.05;;;23.65;;
83018;SDS011;72834;40.104;18.336;2023-12-20T08:33:58;45.08;;;17.75;;
83018;SDS011;72834;40.104;18.336;2023-12-20T08:36:25;36.85;;;14.70;;
83018;SDS011;72834;40.104;18.336;2023-12-20T08:38:51;37.67;;;13.75;;
83018;SDS011;72834;40.104;18.336;2023-12-20T08:41:17;37.50;;;14.43;;
83018;SDS011;72834;40.104;18.336;2023-12-20T08:43:44;40.22;;;15.52;;
83018;SDS011;72834;40.104;18.336;2023-12-20T08:46:10;34.20;;;15.18;;
83018;SDS011;72834;40.104;18.336;2023-12-20T08:48:37;42.70;;;15.73;;
83018;SDS011;72834;40.104;18.336;2023-12-20T08:51:04;37.53;;;14.80;;
83018;SDS011;72834;40.104;18.336;2023-12-20T08:53:34;45.35;;;19.63;;
83018;SDS011;72834;40.104;18.336;2023-12-20T08:56:00;36.72;;;15.05;;
83018;SDS011;72834;40.104;18.336;2023-12-20T08:58:27;32.40;;;15.40;;
83018;SDS011;72834;40.104;18.336;2023-12-20T09:00:54;42.72;;;15.82;;
83018;SDS011;72834;40.104;18.336;2023-12-20T09:03:20;37.03;;;15.50;;
83018;SDS011;72834;40.104;18.336;2023-12-20T09:05:46;37.33;;;14.23;;
83018;SDS011;72834;40.104;18.336;2023-12-20T09:08:13;31.70;;;12.73;;
83018;SDS011;72834;40.104;18.336;2023-12-20T09:10:39;29.20;;;13.18;;
83018;SDS011;72834;40.104;18.336;2023-12-20T09:13:05;33.47;;;14.15;;
83018;SDS011;72834;40.104;18.336;2023-12-20T09:15:31;26.02;;;12.23;;
83018;SDS011;72834;40.104;18.336;2023-12-20T09:17:59;33.85;;;14.25;;
83018;SDS011;72834;40.104;18.336;2023-12-20T09:20:26;29.80;;;13.88;;
83018;SDS011;72834;40.104;18.336;2023-12-20T09:22:52;30.65;;;15.20;;
83018;SDS011;72834;40.104;18.336;2023-12-20T09:25:19;39.35;;;18.38;;
83018;SDS011;72834;40.104;18.336;2023-12-20T09:27:45;34.95;;;18.38;;
83018;SDS011;72834;40.104;18.336;2023-12-20T09:30:12;30.63;;;16.27;;
83018;SDS011;72834;40.104;18.336;2023-12-20T09:32:38;31.00;;;14.77;;
83018;SDS011;72834;40.104;18.336;2023-12-20T09:35:04;29.42;;;12.63;;
83018;SDS011;72834;40.104;18.336;2023-12-20T09:37:32;30.80;;;13.15;;
83018;SDS011;72834;40.104;18.336;2023-12-20T09:39:58;25.13;;;11.45;;
83018;SDS011;72834;40.104;18.336;2023-12-20T09:42:25;25.33;;;12.23;;
83018;SDS011;72834;40.104;18.336;2023-12-20T09:45:08;25.50;;;12.07;;
83018;SDS011;72834;40.104;18.336;2023-12-20T09:47:35;27.88;;;13.43;;
83018;SDS011;72834;40.104;18.336;2023-12-20T09:50:02;34.40;;;15.45;;
83018;SDS011;72834;40.104;18.336;2023-12-20T09:52:28;30.48;;;14.98;;
83018;SDS011;72834;40.104;18.336;2023-12-20T09:54:56;24.00;;;11.13;;
83018;SDS011;72834;40.104;18.336;2023-12-20T09:57:23;19.25;;;10.68;;
83018;SDS011;72834;40.104;18.336;2023-12-20T09:59:50;20.50;;;11.10;;
83018;SDS011;72834;40.104;18.336;2023-12-20T10:02:16;18.60;;;9.88;;
83018;SDS011;72834;40.104;18.336;2023-12-20T10:04:46;17.17;;;9.30;;
83018;SDS011;72834;40.104;18.336;2023-12-20T10:07:13;23.63;;;12.60;;
83018;SDS011;72834;40.104;18.336;2023-12-20T10:09:39;21.60;;;12.43;;
83018;SDS011;72834;40.104;18.336;2023-12-20T10:12:07;17.88;;;12.40;;
83018;SDS011;72834;40.104;18.336;2023-12-20T10:14:34;18.67;;;10.98;;
83018;SDS011;72834;40.104;18.336;2023-12-20T10:17:03;16.48;;;10.02;;
83018;SDS011;72834;40.104;18.336;2023-12-20T10:19:30;30.35;;;10.35;;
83018;SDS011;72834;40.104;18.336;2023-12-20T10:22:00;14.45;;;9.40;;
83018;SDS011;72834;40.104;18.336;2023-12-20T10:24:30;65.97;;;36.25;;
83018;SDS011;72834;40.104;18.336;2023-12-20T10:27:03;18.40;;;11.13;;
83018;SDS011;72834;40.104;18.336;2023-12-20T10:29:37;9.07;;;4.72;;
83018;SDS011;72834;40.104;18.336;2023-12-20T10:32:25;12.35;;;4.90;;
83018;SDS011;72834;40.104;18.336;2023-12-20T10:34:53;15.00;;;9.55;;
83018;SDS011;72834;40.104;18.336;2023-12-20T10:37:20;11.18;;;5.53;;
83018;SDS011;72834;40.104;18.336;2023-12-20T10:39:50;10.95;;;4.60;;
83018;SDS011;72834;40.104;18.336;2023-12-20T10:42:19;5.43;;;2.75;;
83018;SDS011;72834;40.104;18.336;2023-12-20T10:44:51;10.10;;;4.47;;
83018;SDS011;72834;40.104;18.336;2023-12-20T10:47:19;8.20;;;2.77;;
83018;SDS011;72834;40.104;18.336;2023-12-20T10:49:46;9.20;;;4.93;;
83018;SDS011;72834;40.104;18.336;2023-12-20T10:52:13;7.65;;;3.50;;
83018;SDS011;72834;40.104;18.336;2023-12-20T10:54:40;9.10;;;4.13;;
83018;SDS011;72834;40.104;18.336;2023-12-20T10:57:06;8.02;;;3.90;;
83018;SDS011;72834;40.104;18.336;2023-12-20T10:59:33;7.15;;;2.97;;
83018;SDS011;72834;40.104;18.336;2023-12-20T11:02:02;7.50;;;3.97;;
83018;SDS011;72834;40.104;18.336;2023-12-20T11:04:41;8.30;;;3.70;;
83018;SDS011;72834;40.104;18.336;2023-12-20T11:09:59;7.45;;;3.38;;
83018;SDS011;72834;40.104;18.336;2023-12-20T11:12:39;6.05;;;2.83;;
83018;SDS011;72834;40.104;18.336;2023-12-20T11:15:27;7.00;;;3.10;;
83018;SDS011;72834;40.104;18.336;2023-12-20T11:17:57;6.25;;;2.95;;
83018;SDS011;72834;40.104;18.336;2023-12-20T11:20:34;7.13;;;3.05;;
83018;SDS011;72834;40.104;18.336;2023-12-20T11:23:05;7.35;;;2.65;;
83018;SDS011;72834;40.104;18.336;2023-12-20T11:25:53;6.32;;;3.05;;
83018;SDS011;72834;40.104;18.336;2023-12-20T11:28:24;10.63;;;4.63;;
83018;SDS011;72834;40.104;18.336;2023-12-20T11:30:52;8.32;;;5.10;;
83018;SDS011;72834;40.104;18.336;2023-12-20T11:33:23;7.80;;;4.72;;
83018;SDS011;72834;40.104;18.336;2023-12-20T11:35:51;9.30;;;4.68;;
83018;SDS011;72834;40.104;18.336;2023-12-20T11:38:20;8.48;;;4.38;;
83018;SDS011;72834;40.104;18.336;2023-12-20T11:40:50;6.70;;;3.42;;
83018;SDS011;72834;40.104;18.336;2023-12-20T11:43:31;8.75;;;4.00;;
83018;SDS011;72834;40.104;18.336;2023-12-20T11:46:04;7.43;;;3.83;;
83018;SDS011;72834;40.104;18.336;2023-12-20T11:48:32;7.78;;;3.13;;
83018;SDS011;72834;40.104;18.336;2023-12-20T11:51:09;9.18;;;3.85;;
83018;SDS011;72834;40.104;18.336;2023-12-20T11:53:37;11.63;;;6.97;;
83018;SDS011;72834;40.104;18.336;2023-12-20T11:56:04;12.35;;;7.25;;
83018;SDS011;72834;40.104;18.336;2023-12-20T11:58:32;30.02;;;23.50;;
83018;SDS011;72834;40.104;18.336;2023-12-20T12:01:02;13.68;;;8.60;;
83018;SDS011;72834;40.104;18.336;2023-12-20T12:03:30;13.75;;;6.93;;
83018;SDS011;72834;40.104;18.336;2023-12-20T12:05:56;12.98;;;8.05;;
83018;SDS011;72834;40.104;18.336;2023-12-20T12:08:23;39.38;;;25.38;;
83018;SDS011;72834;40.104;18.336;2023-12-20T12:10:49;15.65;;;9.45;;
83018;SDS011;72834;40.104;18.336;2023-12-20T12:13:16;15.43;;;10.23;;
83018;SDS011;72834;40.104;18.336;2023-12-20T12:15:42;12.30;;;6.28;;
83018;SDS011;72834;40.104;18.336;2023-12-20T12:18:10;8.73;;;5.13;;
83018;SDS011;72834;40.104;18.336;2023-12-20T12:20:36;15.30;;;9.13;;
83018;SDS011;72834;40.104;18.336;2023-12-20T12:23:03;19.83;;;12.98;;
83018;SDS011;72834;40.104;18.336;2023-12-20T12:25:30;20.55;;;11.15;;
83018;SDS011;72834;40.104;18.336;2023-12-20T12:27:58;12.43;;;7.70;;
83018;SDS011;72834;40.104;18.336;2023-12-20T12:30:25;11.90;;;6.32;;
83018;SDS011;72834;40.104;18.336;2023-12-20T12:32:55;12.88;;;8.38;;
83018;SDS011;72834;40.104;18.336;2023-12-20T12:35:23;19.65;;;10.90;;
83018;SDS011;72834;40.104;18.336;2023-12-20T12:37:49;20.77;;;10.18;;
83018;SDS011;72834;40.104;18.336;2023-12-20T12:40:17;21.20;;;12.55;;
83018;SDS011;72834;40.104;18.336;2023-12-20T12:42:45;15.40;;;10.85;;
83018;SDS011;72834;40.104;18.336;2023-12-20T12:45:12;15.55;;;9.35;;
83018;SDS011;72834;40.104;18.336;2023-12-20T12:47:38;10.05;;;6.95;;
83018;SDS011;72834;40.104;18.336;2023-12-20T12:50:05;15.63;;;7.50;;
83018;SDS011;72834;40.104;18.336;2023-12-20T12:52:31;37.10;;;27.77;;
83018;SDS011;72834;40.104;18.336;2023-12-20T12:54:58;26.02;;;17.15;;
83018;SDS011;72834;40.104;18.336;2023-12-20T12:57:24;13.57;;;7.68;;
83018;SDS011;72834;40.104;18.336;2023-12-20T12:59:51;19.58;;;11.80;;
83018;SDS011;72834;40.104;18.336;2023-12-20T13:02:17;17.95;;;10.07;;
83018;SDS011;72834;40.104;18.336;2023-12-20T13:04:44;21.40;;;14.05;;
83018;SDS011;72834;40.104;18.336;2023-12-20T13:07:10;14.93;;;10.23;;
83018;SDS011;72834;40.104;18.336;2023-12-20T13:09:37;14.25;;;8.57;;
83018;SDS011;72834;40.104;18.336;2023-12-20T13:12:04;15.23;;;9.45;;
83018;SDS011;72834;40.104;18.336;2023-12-20T13:14:32;20.25;;;11.15;;
83018;SDS011;72834;40.104;18.336;2023-12-20T13:17:03;12.93;;;6.68;;
83018;SDS011;72834;40.104;18.336;2023-12-20T13:19:30;10.75;;;5.47;;
83018;SDS011;72834;40.104;18.336;2023-12-20T13:21:57;9.88;;;5.63;;
83018;SDS011;72834;40.104;18.336;2023-12-20T13:24:26;9.38;;;5.57;;
83018;SDS011;72834;40.104;18.336;2023-12-20T13:26:52;12.73;;;7.07;;
83018;SDS011;72834;40.104;18.336;2023-12-20T13:29:19;12.85;;;8.27;;
83018;SDS011;72834;40.104;18.336;2023-12-20T13:31:45;13.65;;;7.60;;
83018;SDS011;72834;40.104;18.336;2023-12-20T13:34:11;13.90;;;8.60;;
83018;SDS011;72834;40.104;18.336;2023-12-20T13:36:38;11.38;;;5.45;;
83018;SDS011;72834;40.104;18.336;2023-12-20T13:39:04;8.10;;;4.20;;
83018;SDS011;72834;40.104;18.336;2023-12-20T13:41:31;11.13;;;5.00;;
83018;SDS011;72834;40.104;18.336;2023-12-20T13:43:57;11.02;;;4.53;;
83018;SDS011;72834;40.104;18.336;2023-12-20T13:46:23;10.20;;;4.32;;
83018;SDS011;72834;40.104;18.336;2023-12-20T13:48:50;9.15;;;4.68;;
83018;SDS011;72834;40.104;18.336;2023-12-20T13:51:16;8.55;;;4.15;;
83018;SDS011;72834;40.104;18.336;2023-12-20T13:53:42;10.90;;;5.40;;
83018;SDS011;72834;40.104;18.336;2023-12-20T13:56:08;8.50;;;3.85;;
83018;SDS011;72834;40.104;18.336;2023-12-20T13:58:34;13.70;;;5.97;;
83018;SDS011;72834;40.104;18.336;2023-12-20T14:01:01;11.45;;;6.65;;
83018;SDS011;72834;40.104;18.336;2023-12-20T14:03:27;20.05;;;9.35;;
83018;SDS011;72834;40.104;18.336;2023-12-20T14:05:53;12.98;;;6.38;;
83018;SDS011;72834;40.104;18.336;2023-12-20T14:08:20;21.52;;;11.52;;
83018;SDS011;72834;40.104;18.336;2023-12-20T14:10:46;34.25;;;14.10;;
83018;SDS011;72834;40.104;18.336;2023-12-20T14:13:12;22.10;;;11.07;;
83018;SDS011;72834;40.104;18.336;2023-12-20T14:15:39;21.15;;;10.70;;
83018;SDS011;72834;40.104;18.336;2023-12-20T14:18:05;18.73;;;10.82;;